Time;durP1;ratioP1;P1;durP2;ratioP2;P2;SDS_P1;SDS_P2;PMS_P1;PMS_P2;Temp;Humidity;BMP_temperature;BMP_pressure;BME280_temperature;BME280_humidity;BME280_pressure;Samples;Min_cycle;Max_cycle;Signal;HPM_P1;HPM_P2
2023/04/15 00:01:41;;;;;;;15.30;8.50;;;;;;;21.27;34.81;100175.55;108230;1254;74250;-66
2023/04/15 00:04:09;;;;;;;10.60;6.90;;;;;;;21.57;34.38;100173.64;108304;1256;70885;-66
2023/04/15 00:06:40;;;;;;;13.80;7.50;;;;;;;21.75;34.09;100171.42;108258;1252;71991;-65
2023/04/15 00:09:08;;;;;;;14.50;7.50;;;;;;;21.55;34.30;100177.05;108288;1253;61828;-67
2023/04/15 00:11:36;;;;;;;11.40;7.70;;;;;;;21.32;34.65;100175.67;108271;1253;59875;-66
2023/04/15 00:14:07;;;;;;;14.90;7.80;;;;;;;21.32;34.58;100180.91;108310;1254;72140;-67
2023/04/15 00:16:36;;;;;;;12.60;7.80;;;;;;;21.41;34.49;100173.89;108274;1254;70680;-67
2023/04/15 00:19:04;;;;;;;13.50;7.90;;;;;;;21.38;34.55;100175.54;108263;1254;71852;-66
2023/04/15 00:21:32;;;;;;;13.70;8.30;;;;;;;21.28;34.74;100173.56;108234;1254;60212;-64
2023/04/15 00:24:00;;;;;;;12.10;7.40;;;;;;;21.55;34.39;100178.47;108223;1253;59964;-65
2023/04/15 00:26:29;;;;;;;11.50;7.90;;;;;;;21.55;34.40;100169.21;108223;1253;73079;-66
2023/04/15 00:29:01;;;;;;;12.30;6.70;;;;;;;21.37;34.61;100173.55;108249;1253;71238;-67
2023/04/15 00:31:30;;;;;;;10.30;7.40;;;;;;;21.39;34.66;100162.80;108230;1254;73588;-65
2023/04/15 00:33:59;;;;;;;14.20;8.10;;;;;;;21.64;34.27;100159.22;108211;1253;60036;-66
2023/04/15 00:36:34;;;;;;;10.60;6.80;;;;;;;21.51;34.39;100167.34;108263;1252;60397;-66
2023/04/15 00:39:02;;;;;;;13.00;8.00;;;;;;;21.70;34.04;100164.95;108106;1254;74179;-67
2023/04/15 00:41:32;;;;;;;10.50;7.80;;;;;;;21.57;34.42;100164.77;108138;1253;70543;-66
2023/04/15 00:44:07;;;;;;;8.90;7.00;;;;;;;21.83;33.93;100161.14;108234;1254;72935;-67
2023/04/15 00:46:37;;;;;;;9.40;6.80;;;;;;;21.82;33.97;100159.48;108199;1254;59983;-65
2023/04/15 00:49:05;;;;;;;9.50;7.10;;;;;;;21.44;34.54;100161.00;108292;1253;59513;-66
2023/04/15 00:51:35;;;;;;;11.00;6.80;;;;;;;21.44;34.61;100163.13;108299;1252;73501;-66
2023/04/15 00:54:04;;;;;;;11.10;7.60;;;;;;;22.01;33.86;100159.48;108234;1254;70866;-66
2023/04/15 00:56:39;;;;;;;9.80;6.80;;;;;;;22.35;33.23;100162.55;108064;1252;72293;-65
2023/04/15 00:59:08;;;;;;;11.10;6.70;;;;;;;21.73;34.16;100164.89;108177;1254;60195;-64
2023/04/15 01:01:36;;;;;;;11.90;7.30;;;;;;;21.90;33.75;100163.44;108203;1253;59410;-66
2023/04/15 01:04:05;;;;;;;11.30;7.30;;;;;;;22.13;33.50;100163.98;108085;1254;73391;-66
2023/04/15 01:06:34;;;;;;;14.60;7.60;;;;;;;21.93;33.83;100164.79;108166;1253;71230;-65
2023/04/15 01:09:03;;;;;;;9.10;7.00;;;;;;;21.60;34.25;100167.00;108142;1253;71972;-63
2023/04/15 01:11:35;;;;;;;12.70;8.30;;;;;;;21.31;34.66;100166.83;108258;1253;60555;-66
2023/04/15 01:14:03;;;;;;;10.70;7.60;;;;;;;21.19;35.02;100167.84;108179;1253;61351;-67
2023/04/15 01:16:31;;;;;;;13.10;8.90;;;;;;;21.31;34.85;100168.10;108074;1253;74754;-65
2023/04/15 01:19:00;;;;;;;12.50;8.70;;;;;;;21.67;34.27;100161.73;108172;1253;71330;-66
2023/04/15 01:21:28;;;;;;;12.10;7.90;;;;;;;21.39;34.54;100163.86;108077;1254;74341;-67
2023/04/15 01:23:57;;;;;;;12.70;8.50;;;;;;;21.42;34.60;100164.38;108177;1254;61326;-68
2023/04/15 01:26:26;;;;;;;11.20;7.90;;;;;;;21.30;34.70;100165.83;108078;1253;60323;-67
2023/04/15 01:28:55;;;;;;;13.60;8.50;;;;;;;20.90;35.20;100167.44;108109;1252;71991;-65
2023/04/15 01:31:24;;;;;;;13.90;8.60;;;;;;;20.75;35.32;100176.27;108196;1253;71427;-66
2023/04/15 01:33:54;;;;;;;11.70;8.30;;;;;;;20.88;35.26;100175.80;108198;1253;74037;-65
2023/04/15 01:36:22;;;;;;;14.30;8.90;;;;;;;20.93;35.31;100180.62;108168;1253;60570;-65
2023/04/15 01:38:59;;;;;;;16.10;8.40;;;;;;;21.27;34.72;100179.89;108144;1253;61279;-66
2023/04/15 01:41:27;;;;;;;15.40;8.90;;;;;;;21.08;34.87;100182.08;108205;1253;74290;-64
2023/04/15 01:43:56;;;;;;;16.00;8.90;;;;;;;21.21;34.82;100178.71;108189;1254;69809;-65
2023/04/15 01:46:25;;;;;;;14.20;9.10;;;;;;;21.59;34.26;100176.73;108177;1253;72310;-64
2023/04/15 01:48:53;;;;;;;11.50;8.90;;;;;;;21.47;34.31;100175.42;108088;1253;59707;-66
2023/04/15 01:51:22;;;;;;;12.80;9.30;;;;;;;21.18;34.80;100176.13;108141;1254;59583;-66
2023/04/15 01:53:51;;;;;;;14.90;9.50;;;;;;;21.30;34.57;100172.45;108050;1257;72400;-65
2023/04/15 01:56:19;;;;;;;14.20;10.00;;;;;;;21.32;34.45;100173.20;108259;1254;70094;-65
2023/04/15 01:58:47;;;;;;;15.60;9.90;;;;;;;20.50;35.30;100177.70;108101;1254;73118;-65
2023/04/15 02:01:18;;;;;;;16.10;9.40;;;;;;;20.47;35.21;100181.51;108178;1254;60187;-64
2023/04/15 02:03:47;;;;;;;14.30;9.80;;;;;;;20.69;34.95;100182.15;108252;1254;59677;-65
2023/04/15 02:06:16;;;;;;;15.60;10.10;;;;;;;20.87;34.56;100179.47;108321;1253;74416;-66
2023/04/15 02:08:44;;;;;;;16.00;10.30;;;;;;;20.84;34.67;100182.90;108243;1253;71930;-65
2023/04/15 02:11:13;;;;;;;16.90;10.10;;;;;;;20.59;35.04;100188.11;108267;1253;73504;-64
2023/04/15 02:13:41;;;;;;;18.90;10.70;;;;;;;20.74;34.78;100184.26;108133;1254;60945;-64
2023/04/15 02:16:16;;;;;;;15.40;10.00;;;;;;;21.05;34.41;100192.52;108270;1251;60405;-65
2023/04/15 02:18:53;;;;;;;15.90;9.80;;;;;;;21.39;33.89;100195.12;108285;1253;73992;-66
2023/04/15 02:21:21;;;;;;;15.30;10.00;;;;;;;21.05;34.24;100198.90;108098;1254;70065;-65
2023/04/15 02:23:50;;;;;;;17.70;10.70;;;;;;;20.76;34.59;100204.28;108270;1254;73953;-67
2023/04/15 02:26:23;;;;;;;13.70;10.10;;;;;;;20.96;34.37;100203.92;108234;1252;62467;-65
2023/04/15 02:28:54;;;;;;;16.30;10.00;;;;;;;21.10;34.13;100200.84;108112;1253;61225;-66
2023/04/15 02:31:22;;;;;;;15.70;9.40;;;;;;;20.97;34.24;100208.88;108278;1252;74027;-65
2023/04/15 02:33:50;;;;;;;13.50;8.80;;;;;;;20.98;34.20;100214.84;108250;1253;70638;-65
2023/04/15 02:36:20;;;;;;;15.60;10.20;;;;;;;20.99;34.11;100211.20;108266;1253;73584;-65
2023/04/15 02:38:48;;;;;;;15.10;10.30;;;;;;;21.00;34.13;100209.85;108132;1254;62660;-63
2023/04/15 02:41:19;;;;;;;17.60;9.80;;;;;;;20.75;34.25;100209.12;108344;1253;60533;-66
2023/04/15 02:43:47;;;;;;;15.50;10.60;;;;;;;20.66;34.59;100208.74;108095;1252;73938;-66
2023/04/15 02:46:15;;;;;;;14.50;9.80;;;;;;;20.97;34.11;100207.97;108328;1254;70212;-66
2023/04/15 02:48:45;;;;;;;21.70;10.70;;;;;;;21.16;34.03;100212.55;108094;1252;72874;-66
2023/04/15 02:51:14;;;;;;;19.50;10.80;;;;;;;20.77;34.45;100223.59;108089;1253;61912;-65
2023/04/15 02:53:42;;;;;;;13.50;9.60;;;;;;;20.85;34.48;100231.88;108122;1253;60129;-66
2023/04/15 02:56:15;;;;;;;13.50;9.40;;;;;;;21.05;34.29;100234.98;108108;1253;74764;-65
2023/04/15 02:58:49;;;;;;;15.80;11.00;;;;;;;20.88;34.59;100236.13;108334;1253;70570;-66
2023/04/15 03:01:19;;;;;;;14.00;9.50;;;;;;;20.92;34.44;100240.15;108158;1256;73327;-67
2023/04/15 03:03:47;;;;;;;15.90;10.10;;;;;;;20.88;34.55;100237.54;108291;1253;60585;-65
2023/04/15 03:06:15;;;;;;;15.70;10.30;;;;;;;20.62;34.87;100237.05;108131;1254;60461;-66
2023/04/15 03:08:44;;;;;;;14.10;9.90;;;;;;;20.44;35.10;100240.92;108229;1254;75026;-66
2023/04/15 03:11:14;;;;;;;16.50;10.90;;;;;;;20.43;35.11;100239.97;108048;1254;71349;-65
2023/04/15 03:13:43;;;;;;;16.40;9.10;;;;;;;20.51;35.03;100240.44;108113;1254;72851;-66
2023/04/15 03:16:23;;;;;;;17.50;11.00;;;;;;;20.36;35.33;100242.45;108083;1254;62140;-66
2023/04/15 03:18:51;;;;;;;16.80;10.00;;;;;;;20.35;35.48;100247.13;108258;1254;60197;-66
2023/04/15 03:21:20;;;;;;;14.60;9.40;;;;;;;20.15;35.64;100245.64;108190;1253;75072;-67
2023/04/15 03:23:48;;;;;;;18.00;11.20;;;;;;;20.27;35.28;100250.96;108234;1252;69828;-67
2023/04/15 03:26:28;;;;;;;17.00;10.60;;;;;;;20.31;35.15;100254.90;108253;1254;72327;-64
2023/04/15 03:28:59;;;;;;;;;;;;;;;20.89;34.41;100249.77;108099;1253;62160;-66
2023/04/15 03:31:29;;;;;;;22.60;11.30;;;;;;;20.87;34.32;100252.82;108099;1257;60401;-65
2023/04/15 03:33:57;;;;;;;21.20;11.60;;;;;;;20.83;34.30;100257.23;108210;1252;72343;-66
2023/04/15 03:36:28;;;;;;;17.10;11.70;;;;;;;20.70;34.50;100259.65;108230;1254;69533;-66
2023/04/15 03:38:58;;;;;;;;;;;;;;;20.80;34.41;100259.64;108280;1252;72395;-67
2023/04/15 03:41:27;;;;;;;22.70;12.50;;;;;;;20.39;34.81;100264.10;108211;1253;60446;-63
2023/04/15 03:43:58;;;;;;;16.70;12.00;;;;;;;20.48;34.84;100260.42;108251;1253;59806;-65
2023/04/15 03:46:26;;;;;;;22.30;13.30;;;;;;;20.50;34.97;100251.75;108263;1254;74566;-65
2023/04/15 03:48:55;;;;;;;18.90;11.20;;;;;;;20.64;34.70;100255.48;108314;1254;71168;-66
2023/04/15 03:51:23;;;;;;;22.30;13.70;;;;;;;20.47;35.07;100253.20;108358;1253;72990;-65
2023/04/15 03:53:51;;;;;;;19.40;12.10;;;;;;;20.57;34.89;100250.14;108295;1254;62016;-66
2023/04/15 03:56:19;;;;;;;18.40;12.30;;;;;;;20.58;34.68;100247.55;108323;1254;61280;-66
2023/04/15 03:58:50;;;;;;;19.60;12.10;;;;;;;20.46;34.74;100246.99;108305;1254;74029;-66
2023/04/15 04:01:18;;;;;;;20.80;11.90;;;;;;;20.38;34.85;100249.93;108277;1252;71231;-66
2023/04/15 04:03:47;;;;;;;18.90;10.90;;;;;;;20.28;34.92;100254.30;108254;1256;73770;-66
2023/04/15 04:06:19;;;;;;;21.90;12.40;;;;;;;20.18;34.99;100249.70;108209;1252;61305;-66
2023/04/15 04:08:48;;;;;;;19.20;11.80;;;;;;;20.14;35.13;100252.45;108246;1252;60598;-66
2023/04/15 04:11:16;;;;;;;18.60;11.30;;;;;;;20.34;34.85;100256.85;108278;1256;74999;-66
2023/04/15 04:13:46;;;;;;;18.60;11.50;;;;;;;20.41;34.70;100257.02;108291;1253;71249;-66
2023/04/15 04:16:15;;;;;;;22.40;12.90;;;;;;;20.47;34.54;100260.88;108290;1254;72598;-66
2023/04/15 04:18:43;;;;;;;19.00;10.80;;;;;;;20.56;34.31;100261.77;108246;1252;62349;-67
2023/04/15 04:21:11;;;;;;;20.40;11.70;;;;;;;20.00;35.08;100253.13;108192;1253;60408;-66
2023/04/15 04:23:42;;;;;;;17.60;11.10;;;;;;;20.21;34.91;100251.64;108269;1252;74881;-66
2023/04/15 04:26:10;;;;;;;17.70;11.10;;;;;;;20.40;34.48;100252.31;108061;1253;71357;-66
2023/04/15 04:28:39;;;;;;;22.00;12.40;;;;;;;20.46;34.47;100256.69;108200;1253;71704;-66
2023/04/15 04:31:08;;;;;;;21.40;12.60;;;;;;;20.59;34.33;100258.02;108249;1254;62158;-67
2023/04/15 04:33:37;;;;;;;16.00;10.40;;;;;;;20.61;34.33;100261.28;108255;1252;61094;-66
2023/04/15 04:36:06;;;;;;;20.40;12.40;;;;;;;20.17;34.69;100267.42;108022;1254;73745;-67
2023/04/15 04:38:40;;;;;;;22.60;13.40;;;;;;;20.25;34.59;100266.45;108199;1252;69953;-66
2023/04/15 04:41:08;;;;;;;20.90;12.40;;;;;;;20.19;34.67;100267.94;108251;1256;71826;-66
2023/04/15 04:43:36;;;;;;;21.60;11.40;;;;;;;20.03;34.87;100270.15;108194;1253;62454;-67
2023/04/15 04:46:05;;;;;;;19.50;12.00;;;;;;;20.04;34.93;100271.77;108252;1253;61501;-66
2023/04/15 04:48:35;;;;;;;19.10;11.10;;;;;;;20.30;34.41;100269.50;108227;1254;73224;-66
2023/04/15 04:51:03;;;;;;;16.50;10.30;;;;;;;20.20;34.56;100271.27;108193;1253;69890;-66
2023/04/15 04:53:32;;;;;;;19.10;10.30;;;;;;;20.35;34.18;100272.80;108058;1252;73978;-66
2023/04/15 04:56:00;;;;;;;17.00;10.00;;;;;;;20.40;34.09;100277.06;108008;1253;61885;-67
2023/04/15 04:58:28;;;;;;;16.50;10.70;;;;;;;20.62;33.79;100274.70;108099;1252;61785;-67
2023/04/15 05:00:58;;;;;;;16.20;10.50;;;;;;;20.52;33.92;100271.55;107985;1253;74052;-67
2023/04/15 05:03:26;;;;;;;16.70;11.10;;;;;;;20.48;33.95;100268.11;108132;1253;71180;-66
2023/04/15 05:05:55;;;;;;;17.10;9.60;;;;;;;20.45;34.11;100267.63;107878;1253;73873;-66
2023/04/15 05:08:28;;;;;;;15.70;9.90;;;;;;;20.68;33.77;100269.45;108146;1253;60814;-67
2023/04/15 05:10:56;;;;;;;16.20;9.80;;;;;;;20.52;33.92;100274.02;108144;1253;60438;-66
2023/04/15 05:13:24;;;;;;;16.50;10.40;;;;;;;20.25;34.31;100273.02;108177;1252;73776;-66
2023/04/15 05:15:52;;;;;;;18.70;9.90;;;;;;;20.60;33.83;100275.38;108176;1256;68282;-66
2023/04/15 05:18:22;;;;;;;18.20;9.40;;;;;;;20.54;33.80;100277.78;108181;1253;74128;-67
2023/04/15 05:20:50;;;;;;;13.90;9.70;;;;;;;20.29;34.24;100280.06;108141;1253;60512;-66
2023/04/15 05:23:18;;;;;;;14.50;9.60;;;;;;;20.83;33.40;100284.74;108141;1253;60939;-68
2023/04/15 05:25:48;;;;;;;15.60;9.70;;;;;;;20.97;33.30;100280.96;108128;1253;74274;-68
2023/04/15 05:28:17;;;;;;;13.30;8.80;;;;;;;20.80;33.33;100286.56;108100;1253;71375;-66
2023/04/15 05:30:45;;;;;;;17.00;9.60;;;;;;;20.76;33.51;100279.90;108166;1254;72974;-67
2023/04/15 05:33:14;;;;;;;15.00;9.60;;;;;;;21.25;32.95;100283.08;108024;1252;60559;-66
2023/04/15 05:35:42;;;;;;;15.20;9.70;;;;;;;21.20;33.00;100284.52;108139;1254;61928;-67
2023/04/15 05:38:10;;;;;;;14.50;9.60;;;;;;;20.98;33.17;100286.92;108180;1254;73427;-66
2023/04/15 05:40:38;;;;;;;14.70;9.60;;;;;;;21.05;33.11;100286.58;108154;1254;69899;-66
2023/04/15 05:43:07;;;;;;;16.80;9.80;;;;;;;21.03;33.22;100283.67;108132;1256;73839;-66
2023/04/15 05:45:41;;;;;;;15.70;9.90;;;;;;;21.24;33.09;100290.42;107983;1254;60451;-66
2023/04/15 05:48:09;;;;;;;16.40;9.80;;;;;;;21.09;32.95;100284.95;108163;1253;60322;-66
2023/04/15 05:50:40;;;;;;;16.70;9.90;;;;;;;20.70;33.63;100289.46;108120;1253;73773;-66
2023/04/15 05:53:12;;;;;;;15.40;10.00;;;;;;;21.30;32.96;100292.50;108171;1252;71684;-66
2023/04/15 05:55:41;;;;;;;16.10;10.00;;;;;;;20.84;33.56;100288.91;108180;1256;72874;-66
2023/04/15 05:58:09;;;;;;;13.10;9.30;;;;;;;20.82;33.61;100287.98;108283;1252;60284;-65
2023/04/15 06:00:39;;;;;;;14.40;8.70;;;;;;;21.14;33.19;100292.83;108241;1252;60440;-67
2023/04/15 06:03:10;;;;;;;17.30;8.90;;;;;;;21.00;33.43;100286.05;108383;1252;74076;-66
2023/04/15 06:05:39;;;;;;;14.90;8.50;;;;;;;20.47;34.16;100291.34;108300;1254;70591;-67
2023/04/15 06:08:07;;;;;;;15.00;9.90;;;;;;;21.02;33.48;100283.79;108272;1253;73130;-67
2023/04/15 06:10:36;;;;;;;16.20;9.80;;;;;;;21.02;33.47;100286.63;108058;1252;60424;-67
2023/04/15 06:13:04;;;;;;;12.00;8.10;;;;;;;21.24;33.22;100285.11;108088;1252;60380;-66
2023/04/15 06:15:33;;;;;;;14.30;10.20;;;;;;;21.72;32.60;100284.86;108250;1254;74904;-66
2023/04/15 06:18:01;;;;;;;21.40;9.60;;;;;;;21.90;32.11;100286.98;108268;1252;69696;-67
2023/04/15 06:20:29;;;;;;;14.00;8.90;;;;;;;22.02;31.98;100287.23;108272;1254;71407;-66
2023/04/15 06:22:57;;;;;;;16.60;9.30;;;;;;;21.89;31.98;100289.67;108223;1253;61654;-67
2023/04/15 06:25:25;;;;;;;18.80;9.30;;;;;;;21.65;32.33;100292.70;108338;1252;60152;-67
2023/04/15 06:27:55;;;;;;;17.60;9.80;;;;;;;21.36;32.91;100295.52;108109;1252;74701;-66
2023/04/15 06:30:23;;;;;;;12.50;8.80;;;;;;;21.54;32.80;100295.08;108270;1254;70372;-66
2023/04/15 06:32:52;;;;;;;14.90;9.20;;;;;;;21.45;32.79;100297.92;108289;1252;72996;-65
2023/04/15 06:35:21;;;;;;;17.70;10.00;;;;;;;21.32;32.84;100305.67;108300;1253;61670;-67
2023/04/15 06:37:49;;;;;;;16.00;9.20;;;;;;;21.18;33.13;100304.83;108278;1254;60358;-65
2023/04/15 06:40:17;;;;;;;19.60;9.90;;;;;;;21.60;32.60;100307.23;108283;1253;73901;-66
2023/04/15 06:42:45;;;;;;;21.10;10.00;;;;;;;21.47;32.87;100308.27;108279;1254;69307;-66
2023/04/15 06:45:17;;;;;;;16.20;9.40;;;;;;;21.63;32.76;100308.45;108295;1253;73295;-66
2023/04/15 06:47:48;;;;;;;15.70;9.10;;;;;;;21.53;32.66;100313.17;108292;1252;60955;-67
2023/04/15 06:50:16;;;;;;;22.80;9.40;;;;;;;21.24;32.96;100321.33;108084;1253;60413;-67
2023/04/15 06:52:49;;;;;;;21.20;9.20;;;;;;;21.08;33.31;100315.81;108207;1256;73981;-67
2023/04/15 06:55:17;;;;;;;14.20;9.10;;;;;;;21.18;33.01;100319.52;108182;1254;70388;-67
2023/04/15 06:57:45;;;;;;;21.10;9.50;;;;;;;21.22;33.05;100326.48;108094;1253;71446;-67
2023/04/15 07:00:17;;;;;;;17.80;10.20;;;;;;;21.35;33.08;100331.73;108099;1252;61382;-67
2023/04/15 07:02:46;;;;;;;15.40;9.50;;;;;;;21.32;32.90;100331.21;108128;1253;60349;-67
2023/04/15 07:05:15;;;;;;;11.80;8.90;;;;;;;20.82;33.60;100332.80;107961;1253;74575;-66
2023/04/15 07:07:46;;;;;;;13.50;9.20;;;;;;;20.76;33.71;100323.08;108144;1254;69805;-66
2023/04/15 07:10:14;;;;;;;15.00;8.70;;;;;;;21.04;33.48;100326.77;108138;1254;72442;-66
2023/04/15 07:12:43;;;;;;;17.30;9.30;;;;;;;21.23;33.19;100334.95;108190;1253;61104;-67
2023/04/15 07:15:11;;;;;;;17.90;9.00;;;;;;;21.17;32.92;100334.03;108051;1255;60523;-66
2023/04/15 07:17:43;;;;;;;16.10;9.40;;;;;;;21.31;32.96;100334.16;108062;1253;74602;-66
2023/04/15 07:20:12;;;;;;;17.00;9.80;;;;;;;21.29;32.75;100329.51;108161;1252;71496;-66
2023/04/15 07:22:41;;;;;;;12.90;7.90;;;;;;;21.40;32.52;100332.55;107989;1254;71993;-67
2023/04/15 07:25:11;;;;;;;;;;;;;;;21.14;32.97;100335.15;108176;1253;62384;-66
2023/04/15 07:27:40;;;;;;;15.10;9.90;;;;;;;21.50;32.58;100332.29;108155;1254;60301;-66
2023/04/15 07:30:09;;;;;;;19.30;9.50;;;;;;;21.74;32.39;100335.98;108026;1254;71844;-67
2023/04/15 07:32:37;;;;;;;15.40;9.50;;;;;;;21.76;32.14;100339.91;108133;1253;70650;-67
2023/04/15 07:35:05;;;;;;;15.40;9.80;;;;;;;21.44;32.60;100346.36;108155;1252;72613;-66
2023/04/15 07:37:34;;;;;;;16.20;10.00;;;;;;;21.25;32.87;100341.05;108173;1253;61468;-68
2023/04/15 07:40:03;;;;;;;18.30;10.20;;;;;;;21.93;32.37;100342.80;108177;1254;60307;-67
2023/04/15 07:42:35;;;;;;;18.40;9.80;;;;;;;22.00;32.10;100337.94;108166;1253;74998;-67
2023/04/15 07:45:05;;;;;;;19.80;10.80;;;;;;;22.01;32.18;100340.23;108243;1254;71691;-66
2023/04/15 07:47:34;;;;;;;16.10;10.50;;;;;;;21.97;32.08;100338.55;108224;1253;73833;-67
2023/04/15 07:50:02;;;;;;;16.50;8.60;;;;;;;21.95;32.03;100340.48;108198;1253;59270;-66
2023/04/15 07:52:37;;;;;;;17.00;9.40;;;;;;;21.99;31.97;100343.38;108176;1253;59469;-67
2023/04/15 07:55:09;;;;;;;18.10;10.30;;;;;;;22.06;32.08;100353.95;108313;1254;74054;-66
2023/04/15 07:57:38;;;;;;;16.90;9.10;;;;;;;21.89;32.01;100357.09;108096;1254;70593;-66
2023/04/15 08:00:08;;;;;;;17.60;9.90;;;;;;;21.69;32.30;100355.31;108290;1252;71913;-66
2023/04/15 08:02:43;;;;;;;17.80;9.10;;;;;;;21.69;32.01;100356.16;108287;1254;62435;-67
2023/04/15 08:05:13;;;;;;;14.40;8.50;;;;;;;21.10;32.40;100358.83;108280;1254;60329;-67
2023/04/15 08:07:48;;;;;;;14.30;9.10;;;;;;;21.57;31.81;100362.54;108337;1254;73862;-66
2023/04/15 08:10:17;;;;;;;14.60;8.70;;;;;;;21.61;31.71;100357.69;108146;1254;71153;-66
2023/04/15 08:12:48;;;;;;;17.60;9.20;;;;;;;21.42;31.71;100356.54;108307;1254;73389;-67
2023/04/15 08:15:22;;;;;;;15.80;8.00;;;;;;;21.49;31.68;100359.42;108287;1252;62161;-65
2023/04/15 08:17:52;;;;;;;16.40;9.00;;;;;;;21.55;31.42;100354.41;108306;1256;60414;-67
2023/04/15 08:20:21;;;;;;;14.60;8.30;;;;;;;21.32;31.55;100361.73;108155;1253;73500;-66
2023/04/15 08:22:50;;;;;;;11.70;7.80;;;;;;;21.11;31.76;100352.67;108267;1256;69994;-67
2023/04/15 08:25:20;;;;;;;;;;;;;;;21.22;31.80;100356.43;108268;1253;73098;-67
2023/04/15 08:27:55;;;;;;;14.30;8.20;;;;;;;21.53;31.42;100360.09;108188;1253;62219;-65
2023/04/15 08:30:23;;;;;;;13.40;8.40;;;;;;;21.65;31.23;100354.70;108288;1254;60146;-66
2023/04/15 08:32:51;;;;;;;13.20;7.80;;;;;;;21.48;31.41;100350.52;108225;1256;75024;-66
2023/04/15 08:35:24;;;;;;;19.40;8.60;;;;;;;21.36;31.61;100345.60;108222;1256;70633;-66
2023/04/15 08:37:53;;;;;;;12.50;8.10;;;;;;;21.46;31.49;100345.86;108323;1253;73818;-66
2023/04/15 08:40:22;;;;;;;13.20;7.00;;;;;;;21.69;31.00;100348.83;108266;1252;61269;-66
2023/04/15 08:42:50;;;;;;;10.20;6.60;;;;;;;21.59;30.72;100352.90;107961;1254;61537;-66
2023/04/15 08:45:27;;;;;;;15.00;8.10;;;;;;;21.67;30.76;100346.17;108088;1254;74044;-67
2023/04/15 08:47:55;;;;;;;12.80;7.50;;;;;;;22.08;30.31;100344.09;108152;1253;70559;-66
2023/04/15 08:50:24;;;;;;;13.60;7.20;;;;;;;21.68;30.62;100342.70;108228;1254;72155;-66
2023/04/15 08:52:55;;;;;;;13.50;7.30;;;;;;;21.28;31.10;100344.72;108226;1253;61178;-67
2023/04/15 08:55:29;;;;;;;10.60;6.40;;;;;;;21.34;31.11;100349.10;107962;1254;60294;-66
2023/04/15 08:57:57;;;;;;;10.60;7.10;;;;;;;21.54;30.93;100349.88;108163;1253;73383;-68
2023/04/15 09:00:26;;;;;;;11.80;7.40;;;;;;;21.28;31.17;100347.06;108041;1254;70862;-67
2023/04/15 09:02:58;;;;;;;10.60;7.20;;;;;;;21.09;31.35;100349.25;108148;1253;73804;-66
2023/04/15 09:05:26;;;;;;;15.70;7.20;;;;;;;20.79;31.69;100345.48;108143;1253;60479;-67
2023/04/15 09:07:54;;;;;;;15.80;7.30;;;;;;;20.74;31.89;100349.12;108059;1253;60313;-67
2023/04/15 09:10:23;;;;;;;11.10;7.40;;;;;;;21.00;31.56;100345.69;108181;1254;74995;-66
2023/04/15 09:12:52;;;;;;;10.20;6.60;;;;;;;21.34;31.20;100349.13;108218;1253;69568;-66
2023/04/15 09:15:20;;;;;;;10.20;6.50;;;;;;;21.22;31.16;100355.95;108247;1253;73017;-66
2023/04/15 09:17:48;;;;;;;9.80;6.50;;;;;;;20.42;31.94;100351.12;108196;1253;62160;-67
2023/04/15 09:20:17;;;;;;;11.20;6.70;;;;;;;20.74;31.77;100351.83;108185;1254;60274;-67
2023/04/15 09:22:46;;;;;;;13.10;7.00;;;;;;;21.05;31.47;100350.77;108170;1252;72801;-66
2023/04/15 09:25:15;;;;;;;13.30;7.70;;;;;;;20.80;31.68;100349.55;108215;1254;71397;-67
2023/04/15 09:27:50;;;;;;;11.50;7.20;;;;;;;21.35;31.31;100357.23;108160;1254;71134;-67
2023/04/15 09:30:17;;;;;;;16.30;8.20;;;;;;;21.63;30.73;100362.58;108252;1254;62084;-66
2023/04/15 09:33:00;;;;;;;11.30;7.70;;;;;;;21.30;31.20;100357.67;108152;1253;61501;-66
2023/04/15 09:35:29;;;;;;;12.90;8.40;;;;;;;21.48;31.03;100361.06;108126;1254;72876;-66
2023/04/15 09:38:02;;;;;;;13.40;8.10;;;;;;;21.25;31.26;100359.80;108140;1254;71508;-67
2023/04/15 09:40:34;;;;;;;14.20;7.20;;;;;;;21.29;31.10;100358.95;108097;1253;74128;-67
2023/04/15 09:43:04;;;;;;;11.30;6.80;;;;;;;21.20;31.47;100367.55;108140;1252;61983;-66
2023/04/15 09:45:33;;;;;;;11.50;6.90;;;;;;;20.80;31.68;100365.25;108183;1254;61108;-68
2023/04/15 09:48:25;;;;;;;15.70;8.70;;;;;;;21.07;31.51;100363.31;108156;1254;74954;-67
2023/04/15 09:50:56;;;;;;;13.70;6.70;;;;;;;21.32;31.12;100364.48;108171;1254;70456;-67
2023/04/15 09:53:24;;;;;;;;;;;;;;;21.67;30.61;100364.75;108176;1253;72410;-66
2023/04/15 09:55:57;;;;;;;9.90;6.30;;;;;;;21.33;30.98;100364.73;108192;1253;61365;-66
2023/04/15 09:58:29;;;;;;;12.80;6.90;;;;;;;21.67;30.67;100364.92;108286;1252;61430;-66
2023/04/15 10:00:58;;;;;;;10.10;6.20;;;;;;;22.01;30.28;100360.39;108222;1256;73454;-67
2023/04/15 10:03:31;;;;;;;9.30;6.10;;;;;;;21.78;30.43;100358.32;108271;1254;70598;-66
2023/04/15 10:05:59;;;;;;;9.70;6.30;;;;;;;21.73;30.48;100354.27;108298;1255;72613;-66
2023/04/15 10:08:31;;;;;;;10.10;6.70;;;;;;;21.74;30.33;100362.38;108263;1252;62246;-66
2023/04/15 10:11:00;;;;;;;9.90;6.00;;;;;;;21.28;30.84;100366.86;108258;1254;60637;-66
2023/04/15 10:13:35;;;;;;;8.10;5.90;;;;;;;19.94;32.63;100358.67;108246;1254;75268;-66
2023/04/15 10:16:10;;;;;;;13.00;7.00;;;;;;;21.02;31.35;100368.03;108114;1255;71218;-66
2023/04/15 10:18:41;;;;;;;13.20;6.60;;;;;;;21.41;30.84;100366.27;108225;1254;72980;-66
2023/04/15 10:21:09;;;;;;;8.40;6.30;;;;;;;21.52;30.62;100368.20;108230;1256;61680;-67
2023/04/15 10:23:38;;;;;;;9.50;6.50;;;;;;;21.78;30.56;100361.89;107927;1253;60493;-66
2023/04/15 10:26:06;;;;;;;8.30;6.30;;;;;;;22.43;29.73;100371.09;108066;1254;73560;-66
2023/04/15 10:31:32;;;;;;;12.90;7.50;;;;;;;17.53;36.93;100397.84;104889;1289;600954;-67
2023/04/15 10:34:05;;;;;;;10.40;7.00;;;;;;;19.27;34.32;100392.45;107239;1264;60998;-66
2023/04/15 10:36:33;;;;;;;12.60;7.00;;;;;;;19.47;34.12;100390.91;107346;1264;60096;-67
2023/04/15 10:39:01;;;;;;;16.20;7.10;;;;;;;20.11;33.17;100391.34;107378;1268;70918;-67
2023/04/15 10:41:30;;;;;;;10.80;6.90;;;;;;;20.08;33.13;100392.62;107394;1264;71445;-67
2023/04/15 10:44:01;;;;;;;12.00;7.20;;;;;;;20.16;32.86;100396.33;107214;1264;187863;-69
2023/04/15 10:46:43;;;;;;;13.20;7.40;;;;;;;20.08;33.10;100397.61;107519;1263;62388;-67
2023/04/15 10:49:12;;;;;;;;;;;;;;;20.24;32.86;100388.79;107538;1264;59060;-67
2023/04/15 10:51:43;;;;;;;12.50;7.60;;;;;;;20.04;33.23;100384.19;107480;1263;72312;-68
2023/04/15 10:54:24;;;;;;;15.90;7.80;;;;;;;20.38;32.85;100382.84;107393;1263;70588;-66
2023/04/15 10:56:58;;;;;;;11.10;7.10;;;;;;;20.32;33.09;100376.43;107356;1267;72018;-67
2023/04/15 10:59:30;;;;;;;12.10;7.90;;;;;;;20.63;32.81;100374.17;107344;1266;62375;-66
2023/04/15 11:02:02;;;;;;;14.60;7.70;;;;;;;20.42;33.03;100377.34;107337;1266;60307;-67
2023/04/15 11:04:50;;;;;;;14.30;8.20;;;;;;;20.98;32.39;100387.77;108192;1254;73429;-67
2023/04/15 11:07:43;;;;;;;11.80;7.80;;;;;;;21.19;32.08;100388.81;108134;1254;71680;-67
2023/04/15 11:10:19;;;;;;;16.50;8.70;;;;;;;21.08;32.01;100385.04;108151;1254;73693;-67
2023/04/15 11:12:53;;;;;;;11.10;7.90;;;;;;;20.86;32.12;100386.53;108220;1254;61349;-66
2023/04/15 11:15:29;;;;;;;14.30;7.40;;;;;;;21.21;31.76;100385.14;108216;1253;60379;-67
2023/04/15 11:17:58;;;;;;;17.70;8.30;;;;;;;20.46;32.60;100399.29;108218;1253;73185;-67
2023/04/15 11:20:26;;;;;;;11.70;6.70;;;;;;;20.53;32.46;100386.35;108209;1253;69579;-66
2023/04/15 11:22:54;;;;;;;12.80;7.80;;;;;;;21.06;31.92;100391.09;108111;1254;72876;-66
2023/04/15 11:25:42;;;;;;;12.40;7.30;;;;;;;21.29;31.47;100389.36;108222;1256;60262;-67